createdAt,value
2023-02-28T00:01:32.320Z,0.67
2023-02-28T00:03:59.868Z,0.67
2023-02-28T00:06:29.093Z,0.65
2023-02-28T00:08:56.297Z,0.58
2023-02-28T00:11:23.402Z,0.62
2023-02-28T00:13:50.253Z,0.65
2023-02-28T00:16:24.018Z,0.65
2023-02-28T00:18:51.798Z,0.56
2023-02-28T00:21:21.112Z,0.55
2023-02-28T00:23:49.269Z,0.55
2023-02-28T00:26:16.485Z,0.54
2023-02-28T00:28:43.402Z,0.46
2023-02-28T00:31:10.366Z,0.48
2023-02-28T00:33:37.238Z,0.48
2023-02-28T00:36:11.509Z,0.48
2023-02-28T00:38:40.237Z,0.51
2023-02-28T00:41:08.522Z,0.41
2023-02-28T00:43:38.031Z,0.40
2023-02-28T00:46:05.851Z,0.45
2023-02-28T00:48:33.606Z,0.46
2023-02-28T00:51:01.482Z,0.44
2023-02-28T00:53:29.539Z,0.46
2023-02-28T00:55:56.792Z,0.38
2023-02-28T00:58:23.603Z,0.33
2023-02-28T01:00:51.283Z,0.34
2023-02-28T01:03:20.565Z,0.32
2023-02-28T01:05:47.886Z,0.34
2023-02-28T01:08:15.593Z,0.35
2023-02-28T01:10:43.568Z,0.38
2023-02-28T01:13:11.068Z,0.33
2023-02-28T01:15:46.929Z,0.37
2023-02-28T01:18:14.044Z,0.35
2023-02-28T01:20:41.213Z,0.34
2023-02-28T01:23:08.022Z,0.31
2023-02-28T01:25:38.622Z,0.32
2023-02-28T01:28:07.067Z,0.26
2023-02-28T01:30:34.146Z,0.25
2023-02-28T01:33:01.478Z,0.20
2023-02-28T01:35:28.620Z,0.13
2023-02-28T01:37:55.443Z,0.09
2023-02-28T01:40:23.379Z,0.14
2023-02-28T01:42:50.173Z,0.12
2023-02-28T01:45:31.895Z,0.12
2023-02-28T01:48:06.915Z,0.17
2023-02-28T01:50:40.681Z,0.10
2023-02-28T01:53:18.722Z,0.05
2023-02-28T01:55:51.822Z,0.06
2023-02-28T01:58:22.164Z,-0.01
2023-02-28T02:00:49.537Z,0.00
2023-02-28T02:03:21.207Z,-0.04
2023-02-28T02:05:49.320Z,-0.07
2023-02-28T02:08:27.500Z,-0.04
2023-02-28T02:11:01.881Z,0.01
2023-02-28T02:13:59.677Z,0.02
2023-02-28T02:16:35.805Z,0.01
2023-02-28T02:19:38.188Z,0.00
2023-02-28T02:22:29.462Z,0.01
2023-02-28T02:25:20.791Z,0.00
2023-02-28T02:28:18.217Z,-0.13
2023-02-28T02:31:24.742Z,-0.19
2023-02-28T02:34:31.722Z,-0.12
2023-02-28T02:37:17.169Z,-0.11
2023-02-28T02:39:59.249Z,-0.16
2023-02-28T02:42:57.991Z,-0.24
2023-02-28T02:45:51.185Z,-0.21
2023-02-28T02:48:22.220Z,-0.11
2023-02-28T02:50:59.397Z,-0.07
2023-02-28T02:53:38.556Z,0.02
2023-02-28T02:56:08.417Z,-0.08
2023-02-28T02:58:43.172Z,-0.14
2023-02-28T03:01:28.635Z,-0.13
2023-02-28T03:04:20.572Z,-0.19
2023-02-28T03:06:47.784Z,-0.09
2023-02-28T03:09:15.115Z,-0.04
2023-02-28T03:11:43.622Z,-0.09
2023-02-28T03:14:27.572Z,-0.15
2023-02-28T03:17:41.469Z,-0.11
2023-02-28T03:21:06.033Z,-0.07
2023-02-28T03:24:05.447Z,-0.08
2023-02-28T03:26:37.216Z,-0.17
2023-02-28T03:29:18.215Z,-0.13
2023-02-28T03:32:23.206Z,-0.16
2023-02-28T03:35:05.976Z,-0.20
2023-02-28T03:37:38.478Z,-0.06
2023-02-28T03:40:13.090Z,-0.02
2023-02-28T03:42:46.097Z,-0.10
2023-02-28T03:45:33.413Z,-0.15
2023-02-28T03:48:14.752Z,-0.09
2023-02-28T03:50:46.816Z,0.02
2023-02-28T03:53:22.911Z,-0.09
2023-02-28T03:56:02.241Z,-0.17
2023-02-28T03:58:45.207Z,-0.11
2023-02-28T04:01:24.372Z,-0.16
2023-02-28T04:03:51.541Z,-0.13
2023-02-28T04:06:23.170Z,-0.09
2023-02-28T04:08:51.290Z,-0.04
2023-02-28T04:11:23.616Z,-0.10
2023-02-28T04:13:50.768Z,-0.14
2023-02-28T04:16:33.436Z,-0.07
2023-02-28T04:19:06.855Z,-0.16
2023-02-28T04:21:40.472Z,-0.24
2023-02-28T04:24:14.836Z,-0.21
2023-02-28T04:26:46.155Z,-0.13
2023-02-28T04:29:18.596Z,-0.10
2023-02-28T04:31:45.474Z,-0.15
2023-02-28T04:34:12.582Z,-0.24
2023-02-28T04:36:39.507Z,-0.23
2023-02-28T04:39:06.320Z,-0.21
2023-02-28T04:41:33.651Z,-0.19
2023-02-28T04:44:00.897Z,-0.17
2023-02-28T04:46:27.825Z,-0.21
2023-02-28T04:48:55.468Z,-0.21
2023-02-28T04:51:22.589Z,-0.24
2023-02-28T04:53:49.968Z,-0.22
2023-02-28T04:56:19.071Z,-0.30
2023-02-28T04:58:46.760Z,-0.29
2023-02-28T05:01:37.321Z,-0.23
2023-02-28T05:04:08.081Z,-0.25
2023-02-28T05:06:35.363Z,-0.28
2023-02-28T05:09:02.327Z,-0.24
2023-02-28T05:11:36.860Z,-0.24
2023-02-28T05:14:07.568Z,-0.25
2023-02-28T05:16:34.372Z,-0.27
2023-02-28T05:19:02.099Z,-0.35
2023-02-28T05:21:51.891Z,-0.30
2023-02-28T05:24:23.566Z,-0.27
2023-02-28T05:26:54.216Z,-0.20
2023-02-28T05:29:21.690Z,-0.18
2023-02-28T05:31:49.622Z,-0.18
2023-02-28T05:34:17.163Z,-0.20
2023-02-28T05:36:46.608Z,-0.22
2023-02-28T05:39:13.960Z,-0.21
2023-02-28T05:41:43.644Z,-0.13
2023-02-28T05:44:11.511Z,-0.15
2023-02-28T05:46:39.241Z,-0.13
2023-02-28T05:49:06.200Z,-0.12
2023-02-28T05:51:33.206Z,-0.15
2023-02-28T05:54:02.233Z,-0.17
2023-02-28T05:56:33.039Z,-0.19
2023-02-28T05:58:59.852Z,-0.12
2023-02-28T06:01:42.076Z,-0.11
2023-02-28T06:04:22.231Z,-0.09
2023-02-28T06:06:50.779Z,-0.09
2023-02-28T06:09:18.869Z,-0.11
2023-02-28T06:11:46.030Z,-0.07
2023-02-28T06:14:19.341Z,-0.05
2023-02-28T06:16:47.340Z,-0.04
2023-02-28T06:19:14.548Z,-0.04
2023-02-28T06:21:43.222Z,-0.04
2023-02-28T06:24:11.020Z,0.08
2023-02-28T06:26:37.833Z,0.11
2023-02-28T06:29:08.192Z,0.11
2023-02-28T06:31:34.951Z,0.11
2023-02-28T06:34:01.931Z,0.11
2023-02-28T06:36:28.774Z,0.12
2023-02-28T06:38:57.001Z,0.20
2023-02-28T06:41:28.298Z,0.24
2023-02-28T06:43:55.505Z,0.19
2023-02-28T06:46:23.076Z,0.13
2023-02-28T06:48:50.490Z,0.17
2023-02-28T06:51:23.379Z,0.19
2023-02-28T06:53:50.417Z,0.25
2023-02-28T06:56:21.249Z,0.31
2023-02-28T06:58:51.217Z,0.33
2023-02-28T07:01:20.051Z,0.41
2023-02-28T07:03:53.292Z,0.41
2023-02-28T07:06:23.486Z,0.35
2023-02-28T07:08:53.564Z,0.33
2023-02-28T07:11:23.460Z,0.31
2023-02-28T07:13:51.834Z,0.37
2023-02-28T07:16:19.336Z,0.40
2023-02-28T07:18:46.535Z,0.40
2023-02-28T07:21:14.085Z,0.38
2023-02-28T07:23:41.722Z,0.34
2023-02-28T07:26:15.542Z,0.26
2023-02-28T07:28:43.750Z,0.31
2023-02-28T07:31:11.547Z,0.31
2023-02-28T07:33:38.531Z,0.34
2023-02-28T07:36:16.280Z,0.36
2023-02-28T07:38:48.246Z,0.36
2023-02-28T07:41:17.937Z,0.36
2023-02-28T07:43:45.532Z,0.37
2023-02-28T07:46:16.293Z,0.40
2023-02-28T07:48:44.830Z,0.34
2023-02-28T07:51:11.731Z,0.31
2023-02-28T07:53:41.346Z,0.36
2023-02-28T07:56:08.404Z,0.41
2023-02-28T07:58:35.496Z,0.47
2023-02-28T08:01:11.124Z,0.43
2023-02-28T08:03:40.221Z,0.49
2023-02-28T08:06:15.618Z,0.55
2023-02-28T08:08:42.457Z,0.54
2023-02-28T08:11:09.217Z,0.60
2023-02-28T08:13:36.025Z,0.56
2023-02-28T08:16:04.110Z,0.60
2023-02-28T08:18:31.240Z,0.74
2023-02-28T08:20:58.474Z,0.68
2023-02-28T08:23:25.526Z,0.73
2023-02-28T08:25:57.384Z,0.79
2023-02-28T08:28:26.976Z,0.77
2023-02-28T08:30:55.433Z,0.82
2023-02-28T08:33:23.953Z,0.81
2023-02-28T08:35:55.302Z,0.82
2023-02-28T08:38:24.252Z,0.83
2023-02-28T08:40:57.633Z,0.88
2023-02-28T08:43:24.549Z,0.99
2023-02-28T08:45:57.908Z,1.09
2023-02-28T08:48:30.918Z,1.06
2023-02-28T08:51:07.608Z,1.04
2023-02-28T08:53:37.021Z,1.07
2023-02-28T08:56:10.773Z,1.06
2023-02-28T08:58:38.300Z,1.12
2023-02-28T09:01:20.552Z,1.16
2023-02-28T09:03:51.879Z,1.38
2023-02-28T09:06:24.989Z,1.38
2023-02-28T09:08:52.328Z,1.36
2023-02-28T09:11:20.185Z,1.26
2023-02-28T09:13:47.341Z,1.27
2023-02-28T09:16:17.922Z,1.19
2023-02-28T09:18:45.523Z,1.13
2023-02-28T09:21:16.834Z,1.21
2023-02-28T09:23:52.141Z,1.18
2023-02-28T09:26:30.181Z,1.10
2023-02-28T09:29:03.541Z,1.26
2023-02-28T09:31:30.404Z,1.38
2023-02-28T09:34:00.149Z,1.39
2023-02-28T09:36:41.533Z,1.47
2023-02-28T09:39:11.301Z,1.62
2023-02-28T09:41:51.288Z,1.59
2023-02-28T09:44:36.651Z,1.64
2023-02-28T09:47:35.308Z,1.57
2023-02-28T09:50:27.156Z,1.60
2023-02-28T09:52:56.678Z,1.64
2023-02-28T09:55:47.306Z,1.73
2023-02-28T09:58:42.948Z,1.80
2023-02-28T10:01:31.541Z,1.87
2023-02-28T10:04:15.263Z,1.82
2023-02-28T10:06:51.888Z,1.88
2023-02-28T10:09:39.071Z,1.96
2023-02-28T10:12:08.318Z,2.12
2023-02-28T10:14:37.951Z,2.14
2023-02-28T10:17:16.053Z,2.14
2023-02-28T10:19:50.812Z,2.23
2023-02-28T10:22:23.543Z,2.22
2023-02-28T10:25:02.107Z,2.14
2023-02-28T10:27:32.864Z,2.19
2023-02-28T10:30:06.669Z,2.21
2023-02-28T10:32:39.016Z,2.24
2023-02-28T10:35:25.045Z,2.26
2023-02-28T10:38:01.686Z,2.32
2023-02-28T10:40:39.690Z,2.31
2023-02-28T10:43:22.126Z,2.34
2023-02-28T10:46:16.309Z,2.32
2023-02-28T10:49:06.188Z,2.36
2023-02-28T10:51:41.980Z,2.46
2023-02-28T10:54:36.131Z,2.63
2023-02-28T10:57:25.360Z,2.65
2023-02-28T11:00:07.038Z,2.59
2023-02-28T11:02:39.059Z,2.51
2023-02-28T11:05:32.434Z,2.57
2023-02-28T11:08:15.967Z,2.61
2023-02-28T11:10:58.926Z,2.71
2023-02-28T11:13:38.847Z,2.82
2023-02-28T11:16:10.535Z,2.98
2023-02-28T11:18:56.516Z,2.95
2023-02-28T11:21:41.177Z,2.98
2023-02-28T11:24:42.395Z,3.01
2023-02-28T11:27:32.237Z,3.16
2023-02-28T11:30:01.127Z,3.23
2023-02-28T11:32:31.689Z,3.32
2023-02-28T11:35:37.304Z,3.46
2023-02-28T11:38:04.297Z,3.50
2023-02-28T11:40:56.483Z,3.68
2023-02-28T11:43:46.024Z,4.48
2023-02-28T11:46:31.485Z,5.43
2023-02-28T11:49:32.057Z,5.59
2023-02-28T11:52:44.525Z,5.95
2023-02-28T11:55:27.009Z,5.24
2023-02-28T11:58:45.316Z,4.71
2023-02-28T12:02:29.487Z,4.40
2023-02-28T12:05:59.443Z,4.94
2023-02-28T12:09:25.991Z,5.07
2023-02-28T12:12:04.082Z,5.62
2023-02-28T12:15:11.412Z,7.08
2023-02-28T12:18:02.292Z,7.72
2023-02-28T12:20:58.228Z,6.72
2023-02-28T12:23:44.088Z,6.02
2023-02-28T12:26:39.419Z,6.09
2023-02-28T12:29:20.549Z,6.15
2023-02-28T12:32:10.768Z,6.39
2023-02-28T12:34:48.423Z,6.18
2023-02-28T12:37:24.091Z,6.04
2023-02-28T12:40:07.277Z,5.79
2023-02-28T12:42:40.200Z,5.56
2023-02-28T12:45:15.521Z,6.50
2023-02-28T12:47:47.642Z,7.30
2023-02-28T12:50:16.163Z,7.34
2023-02-28T12:53:46.049Z,7.22
2023-02-28T12:57:05.066Z,7.62
2023-02-28T12:59:53.148Z,7.20
2023-02-28T13:02:42.142Z,7.07
2023-02-28T13:05:14.758Z,8.13
2023-02-28T13:08:19.124Z,9.07
2023-02-28T13:10:55.479Z,9.03
2023-02-28T13:13:32.783Z,10.22
2023-02-28T13:16:09.987Z,9.23
2023-02-28T13:18:47.762Z,8.39
2023-02-28T13:21:29.331Z,7.73
2023-02-28T13:23:59.502Z,7.73
2023-02-28T13:26:38.521Z,9.25
2023-02-28T13:29:31.332Z,9.79
2023-02-28T13:32:30.840Z,10.75
2023-02-28T13:35:35.958Z,11.24
2023-02-28T13:38:18.043Z,11.31
2023-02-28T13:40:45.291Z,10.48
2023-02-28T13:43:12.094Z,9.99
2023-02-28T13:45:40.561Z,9.28
2023-02-28T13:48:20.783Z,8.85
2023-02-28T13:50:48.389Z,8.40
2023-02-28T13:53:38.249Z,7.99
2023-02-28T13:56:17.807Z,7.75
2023-02-28T13:59:03.426Z,7.98
2023-02-28T14:02:04.120Z,9.49
2023-02-28T14:05:01.752Z,10.31
2023-02-28T14:07:46.768Z,10.36
2023-02-28T14:10:31.889Z,10.42
2023-02-28T14:13:12.341Z,10.28
2023-02-28T14:15:57.768Z,10.03
2023-02-28T14:18:35.708Z,9.50
2023-02-28T14:21:11.064Z,9.46
2023-02-28T14:24:04.795Z,9.91
2023-02-28T14:27:20.779Z,9.70
2023-02-28T14:30:02.416Z,8.95
2023-02-28T14:32:51.492Z,8.34
2023-02-28T14:36:08.334Z,7.99
2023-02-28T14:39:02.498Z,7.52
2023-02-28T14:41:42.064Z,7.33
2023-02-28T14:44:28.612Z,7.38
2023-02-28T14:46:58.783Z,7.50
2023-02-28T14:49:39.232Z,7.47
2023-02-28T14:52:22.996Z,7.41
2023-02-28T14:54:56.576Z,7.21
2023-02-28T14:57:27.172Z,7.05
2023-02-28T15:00:21.129Z,6.83
2023-02-28T15:02:48.541Z,6.81
2023-02-28T15:05:20.852Z,6.77
2023-02-28T15:08:01.248Z,6.70
2023-02-28T15:10:31.812Z,6.67
2023-02-28T15:13:07.089Z,6.62
2023-02-28T15:16:03.009Z,6.63
2023-02-28T15:19:00.451Z,6.60
2023-02-28T15:21:35.747Z,6.52
2023-02-28T15:24:25.649Z,6.41
2023-02-28T15:27:00.638Z,6.39
2023-02-28T15:29:31.614Z,6.44
2023-02-28T15:32:07.072Z,6.26
2023-02-28T15:34:46.640Z,6.19
2023-02-28T15:37:41.822Z,6.17
2023-02-28T15:40:14.550Z,6.17
2023-02-28T15:42:44.625Z,6.13
2023-02-28T15:45:32.918Z,6.14
2023-02-28T15:48:05.661Z,5.99
2023-02-28T15:50:40.586Z,5.93
2023-02-28T15:53:16.907Z,5.87
2023-02-28T15:55:45.324Z,5.87
2023-02-28T15:58:13.934Z,5.81
2023-02-28T16:00:50.284Z,5.80
2023-02-28T16:03:35.863Z,5.77
2023-02-28T16:06:18.048Z,5.73
2023-02-28T16:08:46.011Z,5.72
2023-02-28T16:11:12.895Z,5.67
2023-02-28T16:13:39.778Z,5.60
2023-02-28T16:16:07.476Z,5.52
2023-02-28T16:18:34.354Z,5.58
2023-02-28T16:21:01.189Z,5.50
2023-02-28T16:23:28.651Z,5.44
2023-02-28T16:25:56.373Z,5.44
2023-02-28T16:28:36.048Z,5.44
2023-02-28T16:31:07.646Z,5.41
2023-02-28T16:33:35.004Z,5.34
2023-02-28T16:36:02.498Z,5.31
2023-02-28T16:38:29.744Z,5.28
2023-02-28T16:41:01.277Z,5.20
2023-02-28T16:43:29.000Z,5.17
2023-02-28T16:46:01.128Z,5.12
2023-02-28T16:48:28.498Z,5.08
2023-02-28T16:50:55.336Z,5.02
2023-02-28T16:53:22.444Z,4.96
2023-02-28T16:55:51.778Z,4.87
2023-02-28T16:58:20.256Z,4.86
2023-02-28T17:00:47.047Z,4.83
2023-02-28T17:03:33.464Z,4.79
2023-02-28T17:06:01.863Z,4.76
2023-02-28T17:08:30.654Z,4.71
2023-02-28T17:10:57.601Z,4.66
2023-02-28T17:13:24.514Z,4.58
2023-02-28T17:15:51.702Z,4.53
2023-02-28T17:18:21.984Z,4.50
2023-02-28T17:20:49.270Z,4.47
2023-02-28T17:23:16.874Z,4.42
2023-02-28T17:25:56.386Z,4.36
2023-02-28T17:28:24.839Z,4.30
2023-02-28T17:30:51.817Z,4.27
2023-02-28T17:33:21.575Z,4.24
2023-02-28T17:35:48.459Z,4.19
2023-02-28T17:38:19.289Z,4.11
2023-02-28T17:40:46.241Z,4.09
2023-02-28T17:43:13.220Z,4.08
2023-02-28T17:45:40.108Z,4.01
2023-02-28T17:48:12.890Z,3.94
2023-02-28T17:50:39.717Z,3.89
2023-02-28T17:53:06.603Z,3.92
2023-02-28T17:55:35.236Z,3.84
2023-02-28T17:58:03.983Z,3.79
2023-02-28T18:00:34.386Z,3.77
2023-02-28T18:03:01.500Z,3.72
2023-02-28T18:05:28.425Z,3.54
2023-02-28T18:07:55.643Z,3.44
2023-02-28T18:10:23.375Z,3.42
2023-02-28T18:12:55.804Z,3.35
2023-02-28T18:15:23.248Z,3.32
2023-02-28T18:17:50.776Z,3.31
2023-02-28T18:20:18.711Z,3.34
2023-02-28T18:22:45.687Z,3.27
2023-02-28T18:25:17.594Z,3.17
2023-02-28T18:27:58.376Z,3.09
2023-02-28T18:30:33.030Z,2.99
2023-02-28T18:33:02.229Z,2.97
2023-02-28T18:35:36.604Z,2.86
2023-02-28T18:38:13.432Z,2.76
2023-02-28T18:40:40.977Z,2.68
2023-02-28T18:43:08.868Z,2.60
2023-02-28T18:45:38.559Z,2.62
2023-02-28T18:48:06.041Z,2.58
2023-02-28T18:50:33.118Z,2.58
2023-02-28T18:53:00.168Z,2.55
2023-02-28T18:55:27.936Z,2.52
2023-02-28T18:57:54.829Z,2.47
2023-02-28T19:00:22.806Z,2.47
2023-02-28T19:02:52.740Z,2.29
2023-02-28T19:05:21.175Z,2.15
2023-02-28T19:07:48.686Z,2.10
2023-02-28T19:10:16.931Z,2.01
2023-02-28T19:12:43.986Z,1.91
2023-02-28T19:15:12.157Z,1.97
2023-02-28T19:17:39.772Z,2.00
2023-02-28T19:20:09.407Z,1.98
2023-02-28T19:22:37.004Z,1.96
2023-02-28T19:25:07.004Z,1.95
2023-02-28T19:27:35.279Z,1.88
2023-02-28T19:30:02.923Z,1.89
2023-02-28T19:32:29.914Z,1.81
2023-02-28T19:34:56.822Z,1.82
2023-02-28T19:37:23.662Z,1.76
2023-02-28T19:39:50.564Z,1.70
2023-02-28T19:42:18.589Z,1.74
2023-02-28T19:44:46.006Z,1.73
2023-02-28T19:47:13.251Z,1.75
2023-02-28T19:49:43.292Z,1.67
2023-02-28T19:52:13.424Z,1.68
2023-02-28T19:54:42.420Z,1.55
2023-02-28T19:57:09.526Z,1.51
2023-02-28T19:59:39.818Z,1.47
2023-02-28T20:02:14.722Z,1.54
2023-02-28T20:04:42.215Z,1.52
2023-02-28T20:07:09.176Z,1.47
2023-02-28T20:09:35.984Z,1.44
2023-02-28T20:12:09.308Z,1.21
2023-02-28T20:14:42.536Z,1.16
2023-02-28T20:17:10.294Z,1.21
2023-02-28T20:19:37.871Z,1.14
2023-02-28T20:22:04.796Z,1.18
2023-02-28T20:24:31.684Z,1.05
2023-02-28T20:26:58.523Z,1.09
2023-02-28T20:29:25.608Z,1.20
2023-02-28T20:31:52.838Z,1.14
2023-02-28T20:34:22.219Z,1.09
2023-02-28T20:36:49.951Z,1.02
2023-02-28T20:39:17.782Z,0.91
2023-02-28T20:41:44.801Z,0.82
2023-02-28T20:44:14.834Z,0.77
2023-02-28T20:46:43.182Z,0.77
2023-02-28T20:49:11.356Z,0.76
2023-02-28T20:51:40.127Z,0.80
2023-02-28T20:54:08.736Z,0.86
2023-02-28T20:56:35.582Z,0.95
2023-02-28T20:59:05.092Z,0.91
2023-02-28T21:01:32.152Z,0.80
2023-02-28T21:04:08.731Z,0.75
2023-02-28T21:06:47.283Z,0.75
2023-02-28T21:09:16.191Z,0.78
2023-02-28T21:11:48.885Z,0.71
2023-02-28T21:14:17.986Z,0.64
2023-02-28T21:16:45.331Z,0.67
2023-02-28T21:19:12.801Z,0.70
2023-02-28T21:21:43.863Z,0.71
2023-02-28T21:24:20.607Z,0.58
2023-02-28T21:26:47.814Z,0.53
2023-02-28T21:29:15.452Z,0.54
2023-02-28T21:31:42.982Z,0.46
2023-02-28T21:34:12.665Z,0.48
2023-02-28T21:36:45.624Z,0.58
2023-02-28T21:39:25.379Z,0.49
2023-02-28T21:41:53.966Z,0.50
2023-02-28T21:44:22.612Z,0.49
2023-02-28T21:46:56.678Z,0.38
2023-02-28T21:49:23.717Z,0.42
2023-02-28T21:51:50.727Z,0.47
2023-02-28T21:54:17.551Z,0.48
2023-02-28T21:56:44.588Z,0.36
2023-02-28T21:59:11.670Z,0.38
2023-02-28T22:01:41.474Z,0.40
2023-02-28T22:04:11.495Z,0.34
2023-02-28T22:06:41.095Z,0.33
2023-02-28T22:09:10.269Z,0.31
2023-02-28T22:11:39.183Z,0.30
2023-02-28T22:14:08.122Z,0.29
2023-02-28T22:16:49.572Z,0.29
2023-02-28T22:19:19.502Z,0.24
2023-02-28T22:21:47.703Z,0.31
2023-02-28T22:24:15.705Z,0.22
2023-02-28T22:26:42.554Z,0.20
2023-02-28T22:29:10.523Z,0.20
2023-02-28T22:31:37.583Z,0.21
2023-02-28T22:34:10.874Z,0.20
2023-02-28T22:36:39.903Z,0.13
2023-02-28T22:39:07.180Z,0.10
2023-02-28T22:41:34.003Z,0.13
2023-02-28T22:44:04.543Z,0.12
2023-02-28T22:46:34.572Z,0.05
2023-02-28T22:49:04.041Z,0.11
2023-02-28T22:51:31.572Z,0.02
2023-02-28T22:53:59.174Z,-0.05
2023-02-28T22:56:29.272Z,-0.24
2023-02-28T22:59:00.118Z,-0.35
2023-02-28T23:01:31.709Z,-0.35
2023-02-28T23:03:59.555Z,-0.31
2023-02-28T23:06:42.623Z,-0.20
2023-02-28T23:09:21.793Z,-0.14
2023-02-28T23:11:51.133Z,-0.16
2023-02-28T23:14:20.231Z,-0.14
2023-02-28T23:16:54.662Z,-0.08
2023-02-28T23:19:29.684Z,-0.03
2023-02-28T23:21:59.288Z,-0.13
2023-02-28T23:24:29.191Z,-0.13
2023-02-28T23:27:04.331Z,0.02
2023-02-28T23:29:32.879Z,-0.02
2023-02-28T23:31:59.890Z,-0.11
2023-02-28T23:34:30.344Z,-0.13
2023-02-28T23:37:00.747Z,-0.13
2023-02-28T23:39:30.001Z,-0.11
2023-02-28T23:41:58.061Z,-0.16
2023-02-28T23:44:25.720Z,-0.20
2023-02-28T23:46:53.427Z,-0.31
2023-02-28T23:49:21.485Z,-0.35
2023-02-28T23:51:51.128Z,-0.47
2023-02-28T23:54:19.088Z,-0.59
2023-02-28T23:56:46.623Z,-0.55
2023-02-28T23:59:14.203Z,-0.47
